createdAt,value
2022-08-04T00:01:45.663Z,69.82
2022-08-04T00:04:18.093Z,69.47
2022-08-04T00:06:44.523Z,69.57
2022-08-04T00:09:16.504Z,69.26
2022-08-04T00:11:45.381Z,69.54
2022-08-04T00:14:14.241Z,69.35
2022-08-04T00:16:42.031Z,69.90
2022-08-04T00:19:12.989Z,69.57
2022-08-04T00:21:42.293Z,69.79
2022-08-04T00:24:12.972Z,69.54
2022-08-04T00:26:40.107Z,69.56
2022-08-04T00:29:06.537Z,69.57
2022-08-04T00:31:55.068Z,69.90
2022-08-04T00:34:20.852Z,70.12
2022-08-04T00:36:47.306Z,70.21
2022-08-04T00:39:16.129Z,70.26
2022-08-04T00:41:57.283Z,70.18
2022-08-04T00:44:24.127Z,70.50
2022-08-04T00:46:56.569Z,70.52
2022-08-04T00:49:25.906Z,70.72
2022-08-04T00:52:32.893Z,70.77
2022-08-04T00:55:06.970Z,70.69
2022-08-04T00:57:38.111Z,70.88
2022-08-04T01:00:22.582Z,71.03
2022-08-04T01:02:58.500Z,70.91
2022-08-04T01:05:27.668Z,70.92
2022-08-04T01:08:05.586Z,70.95
2022-08-04T01:10:47.410Z,70.81
2022-08-04T01:13:29.486Z,71.03
2022-08-04T01:16:00.503Z,71.26
2022-08-04T01:18:46.475Z,71.68
2022-08-04T01:21:15.582Z,71.44
2022-08-04T01:23:42.035Z,71.36
2022-08-04T01:26:44.086Z,71.26
2022-08-04T01:28:57.870Z,71.57
2022-08-04T01:31:42.815Z,71.49
2022-08-04T01:34:11.921Z,71.46
2022-08-04T01:36:40.820Z,71.46
2022-08-04T01:39:26.047Z,71.57
2022-08-04T01:41:58.272Z,71.51
2022-08-04T01:44:27.275Z,71.54
2022-08-04T01:46:53.674Z,71.84
2022-08-04T01:49:21.011Z,71.60
2022-08-04T01:51:49.868Z,71.47
2022-08-04T01:54:17.808Z,71.64
2022-08-04T01:56:45.968Z,71.52
2022-08-04T01:59:14.952Z,71.48
2022-08-04T02:01:41.711Z,71.58
2022-08-04T02:04:19.398Z,71.42
2022-08-04T02:06:57.972Z,71.53
2022-08-04T02:09:35.967Z,71.70
2022-08-04T02:12:39.279Z,71.51
2022-08-04T02:15:23.843Z,71.49
2022-08-04T02:18:10.502Z,71.56
2022-08-04T02:20:43.581Z,71.57
2022-08-04T02:23:14.217Z,71.67
2022-08-04T02:25:44.032Z,71.62
2022-08-04T02:28:22.839Z,71.62
2022-08-04T02:31:08.132Z,71.63
2022-08-04T02:33:38.647Z,71.77
2022-08-04T02:36:06.495Z,71.67
2022-08-04T02:38:45.096Z,71.81
2022-08-04T02:41:12.296Z,71.81
2022-08-04T02:43:50.915Z,71.67
2022-08-04T02:46:19.989Z,71.48
2022-08-04T02:48:47.824Z,71.57
2022-08-04T02:51:15.945Z,71.49
2022-08-04T02:53:43.583Z,71.69
2022-08-04T02:56:11.765Z,71.66
2022-08-04T02:58:38.339Z,71.88
2022-08-04T03:01:05.191Z,71.68
2022-08-04T03:03:46.743Z,71.59
2022-08-04T03:06:16.210Z,71.64
2022-08-04T03:08:45.668Z,71.60
2022-08-04T03:11:14.801Z,71.57
2022-08-04T03:14:00.060Z,71.18
2022-08-04T03:16:38.455Z,71.33
2022-08-04T03:19:23.932Z,71.07
2022-08-04T03:22:00.605Z,70.87
2022-08-04T03:24:29.748Z,71.00
2022-08-04T03:27:11.265Z,70.89
2022-08-04T03:29:55.344Z,70.88
2022-08-04T03:32:27.891Z,70.79
2022-08-04T03:34:57.255Z,70.90
2022-08-04T03:37:42.243Z,70.87
2022-08-04T03:40:23.935Z,70.82
2022-08-04T03:43:05.680Z,70.90
2022-08-04T03:45:52.287Z,70.72
2022-08-04T03:48:40.098Z,70.98
2022-08-04T03:51:35.256Z,70.95
2022-08-04T03:54:21.536Z,70.95
2022-08-04T03:56:50.660Z,70.84
2022-08-04T03:59:35.931Z,70.79
2022-08-04T04:02:21.221Z,70.86
2022-08-04T04:04:56.645Z,70.71
2022-08-04T04:07:28.520Z,70.79
2022-08-04T04:10:19.195Z,71.06
2022-08-04T04:13:08.545Z,70.91
2022-08-04T04:15:53.510Z,71.13
2022-08-04T04:18:47.156Z,70.95
2022-08-04T04:21:13.534Z,71.03
2022-08-04T04:23:49.152Z,70.96
2022-08-04T04:26:30.942Z,71.11
2022-08-04T04:29:15.938Z,71.13
2022-08-04T04:31:51.237Z,71.19
2022-08-04T04:34:24.506Z,71.12
2022-08-04T04:37:09.531Z,71.17
2022-08-04T04:39:47.898Z,71.16
2022-08-04T04:42:20.161Z,71.22
2022-08-04T04:45:25.103Z,71.36
2022-08-04T04:48:15.011Z,71.16
2022-08-04T04:50:41.401Z,71.18
2022-08-04T04:53:24.558Z,71.31
2022-08-04T04:55:58.823Z,71.23
2022-08-04T04:58:25.659Z,71.26
2022-08-04T05:00:55.050Z,71.59
2022-08-04T05:03:38.315Z,71.56
2022-08-04T05:06:21.126Z,71.64
2022-08-04T05:09:07.798Z,71.53
2022-08-04T05:11:48.600Z,71.37
2022-08-04T05:14:35.877Z,71.39
2022-08-04T05:17:15.471Z,71.52
2022-08-04T05:19:44.670Z,71.39
2022-08-04T05:22:18.403Z,71.42
2022-08-04T05:24:47.783Z,71.28
2022-08-04T05:27:21.623Z,71.56
2022-08-04T05:30:08.497Z,71.50
2022-08-04T05:32:45.122Z,71.50
2022-08-04T05:35:16.724Z,71.33
2022-08-04T05:38:03.406Z,71.47
2022-08-04T05:40:30.104Z,71.40
2022-08-04T05:42:57.198Z,71.33
2022-08-04T05:45:24.734Z,71.46
2022-08-04T05:47:52.546Z,71.50
2022-08-04T05:50:19.798Z,71.27
2022-08-04T05:52:46.743Z,71.31
2022-08-04T05:55:13.580Z,71.34
2022-08-04T05:58:01.786Z,71.39
2022-08-04T06:00:40.666Z,71.27
2022-08-04T06:03:12.126Z,71.23
2022-08-04T06:05:39.331Z,71.19
2022-08-04T06:08:13.453Z,71.36
2022-08-04T06:10:41.380Z,71.61
2022-08-04T06:13:10.182Z,71.93
2022-08-04T06:15:58.467Z,71.84
2022-08-04T06:18:33.550Z,71.75
2022-08-04T06:21:17.426Z,71.92
2022-08-04T06:23:53.820Z,71.87
2022-08-04T06:26:31.145Z,71.59
2022-08-04T06:28:58.307Z,71.94
2022-08-04T06:32:29.524Z,71.77
2022-08-04T06:34:34.419Z,71.75
2022-08-04T06:37:01.324Z,72.09
2022-08-04T06:39:28.115Z,71.88
2022-08-04T06:42:17.553Z,72.03
2022-08-04T06:44:42.405Z,71.94
2022-08-04T06:47:10.399Z,72.04
2022-08-04T06:49:44.230Z,71.94
2022-08-04T06:52:28.806Z,71.98
2022-08-04T06:54:57.221Z,72.21
2022-08-04T06:57:25.073Z,72.06
2022-08-04T06:59:53.859Z,72.14
2022-08-04T07:02:27.819Z,72.18
2022-08-04T07:04:54.705Z,72.33
2022-08-04T07:07:21.734Z,72.20
2022-08-04T07:10:03.663Z,72.08
2022-08-04T07:12:31.367Z,72.41
2022-08-04T07:14:58.359Z,72.48
2022-08-04T07:17:28.730Z,72.18
2022-08-04T07:19:55.891Z,72.15
2022-08-04T07:22:25.168Z,72.18
2022-08-04T07:24:56.474Z,72.46
2022-08-04T07:27:47.182Z,72.45
2022-08-04T07:30:10.952Z,72.20
2022-08-04T07:32:37.912Z,72.51
2022-08-04T07:35:05.950Z,72.42
2022-08-04T07:37:39.027Z,72.76
2022-08-04T07:40:07.343Z,72.33
2022-08-04T07:42:33.937Z,72.34
2022-08-04T07:45:00.518Z,72.46
2022-08-04T07:47:27.612Z,72.62
2022-08-04T07:49:57.689Z,72.38
2022-08-04T07:52:25.136Z,72.43
2022-08-04T07:54:52.162Z,72.48
2022-08-04T07:57:41.436Z,72.42
2022-08-04T08:00:08.887Z,72.44
2022-08-04T08:02:36.203Z,72.48
2022-08-04T08:05:02.784Z,72.43
2022-08-04T08:07:29.519Z,72.41
2022-08-04T08:09:56.074Z,72.41
2022-08-04T08:12:35.763Z,72.42
2022-08-04T08:15:10.455Z,72.69
2022-08-04T08:17:58.409Z,72.75
2022-08-04T08:20:29.960Z,72.34
2022-08-04T08:22:57.197Z,72.24
2022-08-04T08:25:23.778Z,72.51
2022-08-04T08:27:56.487Z,72.11
2022-08-04T08:30:23.954Z,71.14
2022-08-04T08:32:50.644Z,70.72
2022-08-04T08:35:17.494Z,70.33
2022-08-04T08:37:47.781Z,70.34
2022-08-04T08:40:32.486Z,70.47
2022-08-04T08:44:04.802Z,70.95
2022-08-04T08:46:12.015Z,71.12
2022-08-04T08:49:01.425Z,71.39
2022-08-04T08:51:31.759Z,71.52
2022-08-04T08:53:58.208Z,71.46
2022-08-04T08:56:37.853Z,71.45
2022-08-04T08:59:04.190Z,71.80
2022-08-04T09:01:42.907Z,71.76
2022-08-04T09:04:32.729Z,71.43
2022-08-04T09:07:02.520Z,71.54
2022-08-04T09:09:30.529Z,71.67
2022-08-04T09:12:12.231Z,71.67
2022-08-04T09:14:51.904Z,71.67
2022-08-04T09:17:29.570Z,71.26
2022-08-04T09:20:03.986Z,71.31
2022-08-04T09:22:39.882Z,71.40
2022-08-04T09:25:10.557Z,71.21
2022-08-04T09:28:00.717Z,71.05
2022-08-04T09:30:40.153Z,70.90
2022-08-04T09:33:44.909Z,71.39
2022-08-04T09:36:15.723Z,71.19
2022-08-04T09:39:11.940Z,70.69
2022-08-04T09:41:49.103Z,71.11
2022-08-04T09:44:48.838Z,71.19
2022-08-04T09:47:17.224Z,71.27
2022-08-04T09:49:47.670Z,71.23
2022-08-04T09:52:23.834Z,71.29
2022-08-04T09:54:59.336Z,71.44
2022-08-04T09:57:31.529Z,71.21
2022-08-04T10:00:16.626Z,71.12
2022-08-04T10:02:46.130Z,71.25
2022-08-04T10:05:14.963Z,71.41
2022-08-04T10:08:15.366Z,70.99
2022-08-04T10:10:56.607Z,71.21
2022-08-04T10:13:29.399Z,71.16
2022-08-04T10:16:13.960Z,71.52
2022-08-04T10:18:45.827Z,71.42
2022-08-04T10:21:22.262Z,71.23
2022-08-04T10:23:55.163Z,71.18
2022-08-04T10:26:33.362Z,70.84
2022-08-04T10:29:02.589Z,70.95
2022-08-04T10:31:33.106Z,70.89
2022-08-04T10:34:20.248Z,70.92
2022-08-04T10:36:58.754Z,70.96
2022-08-04T10:39:43.556Z,71.11
2022-08-04T10:42:17.136Z,70.88
2022-08-04T10:44:50.763Z,70.82
2022-08-04T10:47:22.384Z,70.92
2022-08-04T10:49:54.356Z,71.31
2022-08-04T10:52:44.833Z,70.89
2022-08-04T10:55:21.539Z,71.16
2022-08-04T10:57:52.120Z,71.21
2022-08-04T11:00:38.920Z,71.29
2022-08-04T11:03:10.667Z,71.33
2022-08-04T11:05:43.906Z,71.24
2022-08-04T11:08:20.191Z,71.23
2022-08-04T11:10:51.507Z,71.35
2022-08-04T11:13:21.995Z,71.51
2022-08-04T11:15:58.915Z,71.23
2022-08-04T11:18:28.624Z,71.43
2022-08-04T11:21:13.566Z,71.59
2022-08-04T11:23:44.578Z,71.21
2022-08-04T11:26:18.905Z,71.57
2022-08-04T11:29:03.362Z,71.52
2022-08-04T11:31:39.291Z,71.56
2022-08-04T11:34:14.349Z,71.67
2022-08-04T11:36:53.454Z,71.70
2022-08-04T11:39:29.674Z,71.64
2022-08-04T11:42:06.556Z,71.75
2022-08-04T11:44:37.047Z,71.76
2022-08-04T11:47:07.993Z,71.81
2022-08-04T11:49:57.562Z,71.64
2022-08-04T11:52:26.334Z,71.62
2022-08-04T11:54:54.546Z,71.82
2022-08-04T11:57:22.217Z,71.60
2022-08-04T11:59:55.346Z,71.76
2022-08-04T12:02:49.554Z,71.62
2022-08-04T12:05:23.545Z,71.51
2022-08-04T12:08:21.511Z,71.84
2022-08-04T12:10:47.955Z,71.85
2022-08-04T12:13:20.931Z,71.56
2022-08-04T12:16:05.743Z,71.72
2022-08-04T12:18:40.452Z,71.70
2022-08-04T12:21:10.790Z,71.67
2022-08-04T12:23:40.851Z,71.81
2022-08-04T12:26:14.156Z,71.85
2022-08-04T12:29:08.597Z,71.95
2022-08-04T12:31:29.829Z,71.80
2022-08-04T12:34:13.021Z,71.73
2022-08-04T12:36:42.548Z,71.81
2022-08-04T12:39:15.654Z,71.75
2022-08-04T12:41:51.822Z,71.59
2022-08-04T12:44:37.629Z,71.80
2022-08-04T12:47:27.748Z,71.75
2022-08-04T12:50:01.085Z,71.86
2022-08-04T12:52:51.584Z,71.99
2022-08-04T12:55:15.744Z,71.91
2022-08-04T12:57:42.825Z,71.90
2022-08-04T13:00:09.830Z,71.95
2022-08-04T13:02:43.840Z,71.77
2022-08-04T13:05:16.999Z,71.87
2022-08-04T13:07:48.329Z,71.78
2022-08-04T13:10:18.328Z,71.81
2022-08-04T13:12:56.319Z,71.93
2022-08-04T13:15:23.471Z,71.76
2022-08-04T13:17:52.971Z,71.99
2022-08-04T13:20:25.388Z,71.90
2022-08-04T13:22:58.724Z,72.11
2022-08-04T13:26:44.934Z,71.89
2022-08-04T13:28:26.235Z,72.14
2022-08-04T13:30:55.775Z,72.07
2022-08-04T13:33:28.107Z,72.24
2022-08-04T13:35:56.724Z,72.20
2022-08-04T13:38:24.407Z,71.95
2022-08-04T13:40:51.885Z,72.14
2022-08-04T13:44:15.640Z,72.07
2022-08-04T13:46:27.959Z,72.30
2022-08-04T13:49:23.589Z,72.46
2022-08-04T13:51:58.358Z,71.89
2022-08-04T13:54:26.619Z,71.82
2022-08-04T13:56:59.207Z,71.81
2022-08-04T13:59:27.495Z,71.90
2022-08-04T14:02:02.805Z,71.98
2022-08-04T14:04:31.413Z,72.05
2022-08-04T14:07:19.435Z,71.88
2022-08-04T14:10:03.541Z,71.32
2022-08-04T14:12:38.564Z,71.96
2022-08-04T14:16:01.823Z,71.57
2022-08-04T14:18:27.693Z,71.13
2022-08-04T14:21:01.672Z,71.46
2022-08-04T14:23:31.865Z,71.67
2022-08-04T14:25:59.944Z,71.53
2022-08-04T14:28:41.410Z,71.27
2022-08-04T14:31:15.460Z,71.12
2022-08-04T14:34:03.983Z,71.62
2022-08-04T14:36:38.450Z,71.34
2022-08-04T14:39:41.042Z,71.49
2022-08-04T14:42:08.033Z,71.68
2022-08-04T14:44:56.403Z,71.56
2022-08-04T14:47:38.528Z,71.55
2022-08-04T14:50:05.574Z,71.44
2022-08-04T14:52:31.969Z,71.36
2022-08-04T14:54:58.407Z,71.44
2022-08-04T14:57:27.333Z,71.58
2022-08-04T15:00:00.599Z,71.26
2022-08-04T15:02:29.839Z,71.23
2022-08-04T15:04:57.168Z,71.20
2022-08-04T15:07:24.804Z,71.02
2022-08-04T15:09:51.600Z,71.29
2022-08-04T15:12:18.128Z,71.26
2022-08-04T15:14:45.408Z,71.33
2022-08-04T15:17:29.046Z,71.10
2022-08-04T15:19:56.946Z,71.35
2022-08-04T15:22:23.560Z,71.36
2022-08-04T15:24:55.125Z,71.38
2022-08-04T15:27:23.813Z,71.36
2022-08-04T15:30:00.095Z,71.24
2022-08-04T15:32:29.565Z,71.29
2022-08-04T15:35:01.555Z,71.19
2022-08-04T15:37:50.990Z,70.83
2022-08-04T15:40:37.087Z,71.10
2022-08-04T15:43:11.299Z,70.94
2022-08-04T15:46:37.344Z,71.19
2022-08-04T15:48:35.526Z,71.23
2022-08-04T15:51:05.413Z,71.33
2022-08-04T15:54:02.681Z,71.34
2022-08-04T15:56:30.525Z,71.08
2022-08-04T15:58:57.024Z,71.08
2022-08-04T16:01:23.645Z,71.18
2022-08-04T16:03:58.106Z,71.35
2022-08-04T16:06:29.376Z,71.31
2022-08-04T16:09:00.668Z,71.30
2022-08-04T16:11:31.480Z,71.45
2022-08-04T16:13:58.576Z,71.43
2022-08-04T16:16:28.959Z,71.50
2022-08-04T16:18:55.599Z,71.42
2022-08-04T16:21:25.443Z,71.38
2022-08-04T16:24:10.618Z,71.54
2022-08-04T16:26:37.741Z,71.61
2022-08-04T16:29:24.401Z,71.77
2022-08-04T16:32:06.797Z,71.66
2022-08-04T16:34:55.419Z,71.57
2022-08-04T16:37:30.028Z,71.62
2022-08-04T16:40:22.790Z,71.43
2022-08-04T16:42:49.630Z,71.48
2022-08-04T16:45:16.246Z,71.77
2022-08-04T16:47:48.618Z,71.52
2022-08-04T16:50:22.317Z,71.57
2022-08-04T16:52:49.655Z,71.64
2022-08-04T16:55:17.742Z,71.64
2022-08-04T16:57:47.705Z,71.45
2022-08-04T17:00:14.680Z,71.51
2022-08-04T17:02:41.638Z,71.54
2022-08-04T17:05:38.264Z,71.67
2022-08-04T17:08:28.614Z,71.60
2022-08-04T17:10:53.294Z,71.49
2022-08-04T17:14:03.029Z,71.70
2022-08-04T17:16:23.874Z,71.80
2022-08-04T17:18:51.796Z,71.51
2022-08-04T17:21:22.573Z,71.57
2022-08-04T17:24:15.446Z,71.72
2022-08-04T17:26:41.448Z,71.60
2022-08-04T17:29:09.034Z,71.72
2022-08-04T17:31:36.867Z,71.76
2022-08-04T17:34:14.100Z,71.65
2022-08-04T17:36:43.762Z,71.49
2022-08-04T17:39:17.046Z,71.87
2022-08-04T17:41:48.572Z,71.99
2022-08-04T17:44:15.789Z,71.54
2022-08-04T17:46:48.447Z,71.57
2022-08-04T17:49:17.820Z,71.72
2022-08-04T17:52:06.531Z,71.46
2022-08-04T17:57:24.973Z,71.85
2022-08-04T17:59:57.928Z,71.78
2022-08-04T18:02:33.068Z,71.39
2022-08-04T18:05:07.662Z,71.53
2022-08-04T18:08:35.150Z,71.76
2022-08-04T18:10:57.060Z,71.88
2022-08-04T18:16:22.010Z,72.04
2022-08-04T18:19:08.736Z,71.74
2022-08-04T18:21:46.416Z,71.95
2022-08-04T18:24:21.893Z,71.93
2022-08-04T18:27:01.450Z,71.97
2022-08-04T18:29:31.272Z,71.80
2022-08-04T18:31:58.581Z,72.06
2022-08-04T18:34:26.779Z,72.05
2022-08-04T18:36:57.511Z,72.13
2022-08-04T18:40:09.601Z,72.00
2022-08-04T18:42:14.811Z,72.14
2022-08-04T18:44:51.998Z,72.34
2022-08-04T18:47:29.659Z,72.29
2022-08-04T18:51:01.668Z,72.29
2022-08-04T18:52:46.015Z,72.36
2022-08-04T18:55:55.690Z,72.46
2022-08-04T18:58:01.613Z,72.49
2022-08-04T19:00:32.586Z,72.61
2022-08-04T19:03:00.957Z,72.80
2022-08-04T19:05:38.163Z,72.82
2022-08-04T19:08:32.509Z,72.70
2022-08-04T19:10:59.562Z,72.97
2022-08-04T19:13:27.122Z,72.95
2022-08-04T19:15:53.717Z,72.93
2022-08-04T19:18:20.110Z,73.03
2022-08-04T19:20:48.993Z,73.28
2022-08-04T19:24:30.583Z,73.33
2022-08-04T19:28:49.211Z,73.13
2022-08-04T19:31:17.138Z,73.16
2022-08-04T19:33:59.478Z,73.31
2022-08-04T19:36:32.514Z,73.40
2022-08-04T19:39:00.648Z,73.22
2022-08-04T19:41:27.985Z,72.77
2022-08-04T19:43:54.622Z,72.74
2022-08-04T19:46:24.725Z,72.31
2022-08-04T19:48:59.706Z,72.03
2022-08-04T19:51:27.801Z,71.82
2022-08-04T19:54:02.327Z,71.92
2022-08-04T19:56:30.764Z,71.71
2022-08-04T19:59:07.451Z,71.83
2022-08-04T20:01:42.153Z,71.90
2022-08-04T20:04:11.550Z,71.80
2022-08-04T20:06:39.087Z,71.71
2022-08-04T20:09:24.459Z,71.86
2022-08-04T20:11:52.052Z,71.56
2022-08-04T20:14:19.491Z,71.70
2022-08-04T20:16:49.381Z,71.72
2022-08-04T20:19:15.803Z,71.70
2022-08-04T20:21:55.176Z,71.67
2022-08-04T20:24:41.516Z,71.45
2022-08-04T20:27:15.379Z,71.66
2022-08-04T20:29:46.147Z,71.57
2022-08-04T20:32:15.475Z,71.56
2022-08-04T20:34:41.860Z,71.67
2022-08-04T20:39:55.720Z,71.64
2022-08-04T20:42:27.751Z,71.64
2022-08-04T20:45:00.378Z,71.66
2022-08-04T20:47:31.101Z,71.53
2022-08-04T20:50:02.886Z,71.42
2022-08-04T20:52:30.262Z,71.77
2022-08-04T20:54:57.208Z,71.62
2022-08-04T20:57:50.006Z,71.69
2022-08-04T21:00:10.567Z,71.60
2022-08-04T21:02:39.928Z,71.72
2022-08-04T21:05:08.140Z,71.64
2022-08-04T21:07:36.446Z,71.69
2022-08-04T21:10:10.311Z,71.70
2022-08-04T21:12:37.344Z,71.46
2022-08-04T21:15:14.056Z,71.72
2022-08-04T21:17:56.693Z,71.56
2022-08-04T21:20:29.428Z,71.59
2022-08-04T21:22:59.719Z,71.75
2022-08-04T21:25:28.887Z,71.75
2022-08-04T21:27:55.450Z,71.85
2022-08-04T21:30:26.277Z,71.68
2022-08-04T21:32:53.426Z,71.71
2022-08-04T21:35:21.884Z,71.77
2022-08-04T21:38:03.641Z,71.78
2022-08-04T21:40:37.888Z,71.71
2022-08-04T21:43:05.336Z,71.68
2022-08-04T21:45:36.314Z,71.74
2022-08-04T21:48:04.612Z,71.55
2022-08-04T21:50:31.212Z,71.63
2022-08-04T21:52:57.693Z,71.60
2022-08-04T21:55:25.699Z,71.51
2022-08-04T21:58:13.235Z,71.43
2022-08-04T22:00:40.228Z,71.50
2022-08-04T22:03:06.768Z,71.46
2022-08-04T22:05:49.823Z,71.67
2022-08-04T22:08:19.922Z,71.67
2022-08-04T22:10:49.939Z,71.53
2022-08-04T22:13:22.495Z,71.46
2022-08-04T22:16:04.837Z,71.79
2022-08-04T22:18:32.302Z,71.77
2022-08-04T22:21:03.599Z,71.75
2022-08-04T22:23:41.814Z,71.82
2022-08-04T22:26:13.153Z,72.05
2022-08-04T22:28:39.573Z,71.84
2022-08-04T22:31:23.748Z,71.94
2022-08-04T22:33:56.126Z,72.06
2022-08-04T22:36:24.780Z,71.95
2022-08-04T22:38:58.003Z,72.10
2022-08-04T22:41:34.140Z,72.17
2022-08-04T22:44:16.067Z,72.13
2022-08-04T22:46:42.722Z,72.18
2022-08-04T22:49:09.115Z,72.16
2022-08-04T22:51:35.957Z,72.00
2022-08-04T22:54:02.359Z,72.25
2022-08-04T22:56:39.302Z,72.13
2022-08-04T22:59:06.787Z,72.28
2022-08-04T23:01:59.326Z,72.25
2022-08-04T23:04:23.156Z,72.39
2022-08-04T23:06:49.971Z,72.42
2022-08-04T23:09:17.082Z,72.44
2022-08-04T23:11:43.481Z,72.48
2022-08-04T23:14:10.422Z,72.59
2022-08-04T23:16:40.876Z,72.58
2022-08-04T23:19:09.852Z,72.70
2022-08-04T23:21:40.927Z,72.52
2022-08-04T23:24:13.553Z,72.56
2022-08-04T23:26:39.961Z,72.56
2022-08-04T23:29:08.084Z,72.95
2022-08-04T23:31:41.276Z,72.73
2022-08-04T23:34:20.864Z,72.69
2022-08-04T23:36:48.139Z,72.88
2022-08-04T23:39:16.468Z,72.54
2022-08-04T23:41:54.419Z,72.61
2022-08-04T23:44:25.839Z,72.88
2022-08-04T23:46:57.674Z,72.87
2022-08-04T23:49:24.062Z,72.62
2022-08-04T23:52:07.135Z,72.73
2022-08-04T23:54:36.189Z,72.77
2022-08-04T23:57:04.122Z,73.00
2022-08-04T23:59:52.234Z,73.12
